createdAt,value
2023-03-21T00:01:50.793Z,11.25
2023-03-21T00:04:17.636Z,11.21
2023-03-21T00:06:44.271Z,11.16
2023-03-21T00:09:11.347Z,11.12
2023-03-21T00:11:37.838Z,11.09
2023-03-21T00:14:05.902Z,11.07
2023-03-21T00:16:33.209Z,11.05
2023-03-21T00:19:03.550Z,11.01
2023-03-21T00:22:03.641Z,10.99
2023-03-21T00:24:18.973Z,10.97
2023-03-21T00:26:46.210Z,10.96
2023-03-21T00:29:13.061Z,10.96
2023-03-21T00:31:39.686Z,10.95
2023-03-21T00:34:06.268Z,10.91
2023-03-21T00:36:33.008Z,10.88
2023-03-21T00:39:00.864Z,10.83
2023-03-21T00:41:41.524Z,10.79
2023-03-21T00:44:09.572Z,10.77
2023-03-21T00:46:45.185Z,10.77
2023-03-21T00:49:13.953Z,10.77
2023-03-21T00:51:40.721Z,10.77
2023-03-21T00:54:07.905Z,10.73
2023-03-21T00:56:34.595Z,10.70
2023-03-21T00:59:01.197Z,10.69
2023-03-21T01:01:31.880Z,10.67
2023-03-21T01:04:07.775Z,10.65
2023-03-21T01:06:39.559Z,10.62
2023-03-21T01:09:18.751Z,10.60
2023-03-21T01:11:45.764Z,10.62
2023-03-21T01:14:23.008Z,10.63
2023-03-21T01:16:53.902Z,10.60
2023-03-21T01:19:37.650Z,10.58
2023-03-21T01:22:09.621Z,10.58
2023-03-21T01:24:40.430Z,10.61
2023-03-21T01:27:10.477Z,10.60
2023-03-21T01:29:37.693Z,10.59
2023-03-21T01:32:04.347Z,10.61
2023-03-21T01:34:31.399Z,10.61
2023-03-21T01:36:58.055Z,10.62
2023-03-21T01:39:24.662Z,10.62
2023-03-21T01:41:51.388Z,10.59
2023-03-21T01:44:18.855Z,10.58
2023-03-21T01:49:39.111Z,10.61
2023-03-21T01:52:14.064Z,10.62
2023-03-21T01:54:45.398Z,10.64
2023-03-21T01:57:43.601Z,10.70
2023-03-21T02:00:15.480Z,10.69
2023-03-21T02:02:52.193Z,10.68
2023-03-21T02:05:23.527Z,10.68
2023-03-21T02:07:52.714Z,10.69
2023-03-21T02:10:19.784Z,10.65
2023-03-21T02:12:46.466Z,10.63
2023-03-21T02:15:13.265Z,10.62
2023-03-21T02:17:41.926Z,10.63
2023-03-21T02:20:25.450Z,10.60
2023-03-21T02:23:15.551Z,10.60
2023-03-21T02:25:48.216Z,10.61
2023-03-21T02:28:20.727Z,10.62
2023-03-21T02:31:19.155Z,10.64
2023-03-21T02:34:13.481Z,10.65
2023-03-21T02:36:49.294Z,10.65
2023-03-21T02:39:23.445Z,10.63
2023-03-21T02:41:58.917Z,10.61
2023-03-21T02:44:48.246Z,10.62
2023-03-21T02:47:18.031Z,10.61
2023-03-21T02:49:47.650Z,10.63
2023-03-21T02:52:31.875Z,10.65
2023-03-21T02:55:06.301Z,10.70
2023-03-21T02:57:42.070Z,10.73
2023-03-21T03:00:16.681Z,10.75
2023-03-21T03:02:43.966Z,10.78
2023-03-21T03:05:22.282Z,10.80
2023-03-21T03:08:07.484Z,10.83
2023-03-21T03:10:56.360Z,10.87
2023-03-21T03:13:28.920Z,10.87
2023-03-21T03:16:11.784Z,10.89
2023-03-21T03:18:38.317Z,10.89
2023-03-21T03:21:31.790Z,10.91
2023-03-21T03:24:01.549Z,10.91
2023-03-21T03:26:34.486Z,10.93
2023-03-21T03:29:06.387Z,10.92
2023-03-21T03:31:50.362Z,10.90
2023-03-21T03:34:21.252Z,10.89
2023-03-21T03:36:56.113Z,10.90
2023-03-21T03:39:32.996Z,10.91
2023-03-21T03:42:18.297Z,10.89
2023-03-21T03:44:51.904Z,10.86
2023-03-21T03:47:47.777Z,10.86
2023-03-21T03:50:37.104Z,10.84
2023-03-21T03:53:29.173Z,10.82
2023-03-21T03:55:56.404Z,10.82
2023-03-21T03:58:36.129Z,10.82
2023-03-21T04:01:09.761Z,10.81
2023-03-21T04:03:48.346Z,10.77
2023-03-21T04:06:17.086Z,10.74
2023-03-21T04:08:43.849Z,10.72
2023-03-21T04:11:12.772Z,10.69
2023-03-21T04:13:39.315Z,10.65
2023-03-21T04:16:07.056Z,10.60
2023-03-21T04:18:33.612Z,10.56
2023-03-21T04:21:00.504Z,10.50
2023-03-21T04:23:29.294Z,10.48
2023-03-21T04:25:57.182Z,10.45
2023-03-21T04:28:24.167Z,10.41
2023-03-21T04:31:01.226Z,10.35
2023-03-21T04:33:31.568Z,10.33
2023-03-21T04:35:59.195Z,10.34
2023-03-21T04:38:30.686Z,10.33
2023-03-21T04:40:57.878Z,10.30
2023-03-21T04:43:24.666Z,10.27
2023-03-21T04:45:52.154Z,10.30
2023-03-21T04:48:19.675Z,10.32
2023-03-21T04:50:46.748Z,10.33
2023-03-21T04:53:13.458Z,10.37
2023-03-21T04:55:40.226Z,10.42
2023-03-21T04:58:06.816Z,10.46
2023-03-21T05:00:37.469Z,10.48
2023-03-21T05:03:09.305Z,10.49
2023-03-21T05:05:38.037Z,10.52
2023-03-21T05:08:05.858Z,10.55
2023-03-21T05:10:32.977Z,10.57
2023-03-21T05:12:59.657Z,10.58
2023-03-21T05:15:26.442Z,10.58
2023-03-21T05:17:53.167Z,10.58
2023-03-21T05:20:19.942Z,10.59
2023-03-21T05:22:50.164Z,10.58
2023-03-21T05:25:18.207Z,10.59
2023-03-21T05:27:54.519Z,10.59
2023-03-21T05:30:21.402Z,10.59
2023-03-21T05:32:48.189Z,10.59
2023-03-21T05:35:15.040Z,10.56
2023-03-21T05:37:41.838Z,10.54
2023-03-21T05:40:09.611Z,10.53
2023-03-21T05:42:36.400Z,10.56
2023-03-21T05:45:03.254Z,10.61
2023-03-21T05:47:30.325Z,10.68
2023-03-21T05:49:56.897Z,10.75
2023-03-21T05:52:23.876Z,10.82
2023-03-21T05:54:50.566Z,10.90
2023-03-21T05:57:19.239Z,10.94
2023-03-21T05:59:46.185Z,11.00
2023-03-21T06:02:13.112Z,11.07
2023-03-21T06:04:39.857Z,11.15
2023-03-21T06:07:06.511Z,11.23
2023-03-21T06:09:34.211Z,11.29
2023-03-21T06:12:01.157Z,11.37
2023-03-21T06:14:27.749Z,11.43
2023-03-21T06:16:54.525Z,11.47
2023-03-21T06:19:21.963Z,11.47
2023-03-21T06:21:49.355Z,11.50
2023-03-21T06:24:17.821Z,11.51
2023-03-21T06:26:45.176Z,11.50
2023-03-21T06:29:11.948Z,11.54
2023-03-21T06:31:38.514Z,11.57
2023-03-21T06:34:05.447Z,11.59
2023-03-21T06:36:32.312Z,11.67
2023-03-21T06:38:59.141Z,11.70
2023-03-21T06:41:26.116Z,11.76
2023-03-21T06:43:52.691Z,11.84
2023-03-21T06:46:19.284Z,11.90
2023-03-21T06:48:45.854Z,11.94
2023-03-21T06:51:14.493Z,11.98
2023-03-21T06:53:41.600Z,12.02
2023-03-21T06:56:09.615Z,12.04
2023-03-21T06:58:36.943Z,12.08
2023-03-21T07:01:04.321Z,12.08
2023-03-21T07:03:31.731Z,12.11
2023-03-21T07:05:58.843Z,12.16
2023-03-21T07:08:25.794Z,12.24
2023-03-21T07:10:56.962Z,12.32
2023-03-21T07:13:23.766Z,12.38
2023-03-21T07:15:50.475Z,12.47
2023-03-21T07:18:17.339Z,12.54
2023-03-21T07:20:48.193Z,12.63
2023-03-21T07:23:15.172Z,12.73
2023-03-21T07:25:42.287Z,12.80
2023-03-21T07:28:09.252Z,12.89
2023-03-21T07:30:36.864Z,12.95
2023-03-21T07:33:03.621Z,13.04
2023-03-21T07:35:30.422Z,13.12
2023-03-21T07:37:57.460Z,13.23
2023-03-21T07:40:24.193Z,13.33
2023-03-21T07:42:51.286Z,13.46
2023-03-21T07:45:21.941Z,13.62
2023-03-21T07:47:49.092Z,13.77
2023-03-21T07:50:15.837Z,13.96
2023-03-21T07:52:42.868Z,14.12
2023-03-21T07:55:10.436Z,14.26
2023-03-21T07:57:37.310Z,14.42
2023-03-21T08:00:06.393Z,14.62
2023-03-21T08:02:33.136Z,14.78
2023-03-21T08:04:59.844Z,14.92
2023-03-21T08:07:27.911Z,15.02
2023-03-21T08:09:54.534Z,15.14
2023-03-21T08:12:21.402Z,15.25
2023-03-21T08:14:48.281Z,15.34
2023-03-21T08:17:14.972Z,15.42
2023-03-21T08:19:41.748Z,15.49
2023-03-21T08:22:08.363Z,15.58
2023-03-21T08:24:35.085Z,15.63
2023-03-21T08:27:02.209Z,15.67
2023-03-21T08:29:28.826Z,15.71
2023-03-21T08:31:56.021Z,15.72
2023-03-21T08:34:23.270Z,15.76
2023-03-21T08:36:49.907Z,15.75
2023-03-21T08:39:16.579Z,15.76
2023-03-21T08:41:43.237Z,15.79
2023-03-21T08:44:11.704Z,15.82
2023-03-21T08:46:38.394Z,15.84
2023-03-21T08:49:05.496Z,15.88
2023-03-21T08:51:33.635Z,15.93
2023-03-21T08:54:00.389Z,15.99
2023-03-21T08:56:26.943Z,16.02
2023-03-21T08:58:53.456Z,16.03
2023-03-21T09:01:20.093Z,16.06
2023-03-21T09:03:46.958Z,16.08
2023-03-21T09:06:14.302Z,16.12
2023-03-21T09:08:46.259Z,16.15
2023-03-21T09:11:13.192Z,16.20
2023-03-21T09:13:39.766Z,16.26
2023-03-21T09:16:06.749Z,16.32
2023-03-21T09:18:50.684Z,16.38
2023-03-21T09:21:18.566Z,16.46
2023-03-21T09:23:46.228Z,16.50
2023-03-21T09:26:13.673Z,16.58
2023-03-21T09:28:40.680Z,16.63
2023-03-21T09:31:11.300Z,16.69
2023-03-21T09:33:40.482Z,16.72
2023-03-21T09:36:14.460Z,16.74
2023-03-21T09:38:43.088Z,16.74
2023-03-21T09:41:39.677Z,16.77
2023-03-21T09:44:22.903Z,16.79
2023-03-21T09:47:05.582Z,16.80
2023-03-21T09:49:35.495Z,16.82
2023-03-21T09:52:08.076Z,16.81
2023-03-21T09:54:40.564Z,16.80
2023-03-21T09:57:32.549Z,16.85
2023-03-21T09:59:59.795Z,16.87
2023-03-21T10:02:45.539Z,16.92
2023-03-21T10:05:19.570Z,16.99
2023-03-21T10:08:04.651Z,17.01
2023-03-21T10:10:59.375Z,17.04
2023-03-21T10:13:29.264Z,17.09
2023-03-21T10:16:01.972Z,17.10
2023-03-21T10:18:30.615Z,17.10
2023-03-21T10:20:57.521Z,17.11
2023-03-21T10:23:35.190Z,17.12
2023-03-21T10:26:03.286Z,17.12
2023-03-21T10:28:49.862Z,17.13
2023-03-21T10:31:27.139Z,17.12
2023-03-21T10:33:56.503Z,17.12
2023-03-21T10:36:27.240Z,17.13
2023-03-21T10:39:01.307Z,17.15
2023-03-21T10:41:28.263Z,17.18
2023-03-21T10:44:14.551Z,17.23
2023-03-21T10:46:56.268Z,17.25
2023-03-21T10:49:22.966Z,17.13
2023-03-21T10:51:51.857Z,17.12
2023-03-21T10:54:21.257Z,17.13
2023-03-21T10:57:07.835Z,17.17
2023-03-21T10:59:45.724Z,17.22
2023-03-21T11:02:28.668Z,17.27
2023-03-21T11:04:55.900Z,17.30
2023-03-21T11:07:25.347Z,17.36
2023-03-21T11:09:58.870Z,17.39
2023-03-21T11:12:34.653Z,17.38
2023-03-21T11:15:14.825Z,17.40
2023-03-21T11:17:41.877Z,17.44
2023-03-21T11:20:12.562Z,17.47
2023-03-21T11:22:41.715Z,17.46
2023-03-21T11:25:12.132Z,17.47
2023-03-21T11:27:49.170Z,17.43
2023-03-21T11:30:27.465Z,17.40
2023-03-21T11:32:59.027Z,17.38
2023-03-21T11:35:28.866Z,17.35
2023-03-21T11:37:56.483Z,17.32
2023-03-21T11:40:27.043Z,17.30
2023-03-21T11:43:06.919Z,17.25
2023-03-21T11:45:35.895Z,17.19
2023-03-21T11:48:11.628Z,17.15
2023-03-21T11:50:42.396Z,17.10
2023-03-21T11:53:30.597Z,17.10
2023-03-21T11:56:12.262Z,17.12
2023-03-21T11:58:54.078Z,17.18
2023-03-21T12:01:47.776Z,17.21
2023-03-21T12:04:27.241Z,17.28
2023-03-21T12:06:58.728Z,17.31
2023-03-21T12:09:51.397Z,17.32
2023-03-21T12:12:39.199Z,17.34
2023-03-21T12:15:14.798Z,17.33
2023-03-21T12:17:50.694Z,17.36
2023-03-21T12:20:54.851Z,17.37
2023-03-21T12:23:37.235Z,17.40
2023-03-21T12:26:03.798Z,17.42
2023-03-21T12:28:53.169Z,17.44
2023-03-21T12:32:04.285Z,17.45
2023-03-21T12:35:03.434Z,17.47
2023-03-21T12:37:53.828Z,17.44
2023-03-21T12:40:44.124Z,17.37
2023-03-21T12:43:23.029Z,17.33
2023-03-21T12:45:53.606Z,17.34
2023-03-21T12:48:40.879Z,17.31
2023-03-21T12:51:12.637Z,17.30
2023-03-21T12:53:42.414Z,17.25
2023-03-21T12:56:21.307Z,17.23
2023-03-21T12:58:54.685Z,17.19
2023-03-21T13:01:22.892Z,17.18
2023-03-21T13:04:15.284Z,17.16
2023-03-21T13:06:42.177Z,17.14
2023-03-21T13:09:16.056Z,17.12
2023-03-21T13:11:44.054Z,17.11
2023-03-21T13:14:21.434Z,17.11
2023-03-21T13:17:02.465Z,17.14
2023-03-21T13:19:38.650Z,17.17
2023-03-21T13:22:27.041Z,17.19
2023-03-21T13:25:06.676Z,17.23
2023-03-21T13:27:42.199Z,17.25
2023-03-21T13:30:14.799Z,17.31
2023-03-21T13:32:43.272Z,17.36
2023-03-21T13:35:27.709Z,17.39
2023-03-21T13:38:02.799Z,17.44
2023-03-21T13:40:38.687Z,17.51
2023-03-21T13:43:07.210Z,17.53
2023-03-21T13:45:46.137Z,17.56
2023-03-21T13:48:30.534Z,17.55
2023-03-21T13:51:05.639Z,17.51
2023-03-21T13:53:45.548Z,17.51
2023-03-21T13:56:12.149Z,17.53
2023-03-21T13:58:42.088Z,17.54
2023-03-21T14:01:51.811Z,17.53
2023-03-21T14:04:22.484Z,17.53
2023-03-21T14:07:03.632Z,17.53
2023-03-21T14:09:41.660Z,17.53
2023-03-21T14:12:14.119Z,17.52
2023-03-21T14:14:44.183Z,17.51
2023-03-21T14:17:20.928Z,17.50
2023-03-21T14:19:52.749Z,17.53
2023-03-21T14:22:19.353Z,17.52
2023-03-21T14:25:00.189Z,17.52
2023-03-21T14:27:30.752Z,17.50
2023-03-21T14:29:58.802Z,17.49
2023-03-21T14:32:27.092Z,17.48
2023-03-21T14:34:55.337Z,17.47
2023-03-21T14:37:38.205Z,17.41
2023-03-21T14:40:27.419Z,17.38
2023-03-21T14:42:54.681Z,17.34
2023-03-21T14:45:22.919Z,17.30
2023-03-21T14:48:04.700Z,17.25
2023-03-21T14:50:49.534Z,17.21
2023-03-21T14:53:21.593Z,17.17
2023-03-21T14:55:52.928Z,17.15
2023-03-21T14:58:19.767Z,17.12
2023-03-21T15:00:49.340Z,17.11
2023-03-21T15:03:17.944Z,17.08
2023-03-21T15:05:45.733Z,17.04
2023-03-21T15:08:12.239Z,16.99
2023-03-21T15:10:39.006Z,16.98
2023-03-21T15:13:23.599Z,16.94
2023-03-21T15:15:50.403Z,16.92
2023-03-21T15:18:23.497Z,16.91
2023-03-21T15:20:50.346Z,16.88
2023-03-21T15:23:28.966Z,16.87
2023-03-21T15:25:55.810Z,16.84
2023-03-21T15:28:22.394Z,16.84
2023-03-21T15:30:50.710Z,16.83
2023-03-21T15:33:17.734Z,16.80
2023-03-21T15:35:49.857Z,16.78
2023-03-21T15:38:41.339Z,16.73
2023-03-21T15:41:19.962Z,16.66
2023-03-21T15:44:00.628Z,16.63
2023-03-21T15:46:42.652Z,16.60
2023-03-21T15:49:14.993Z,16.58
2023-03-21T15:51:43.418Z,16.56
2023-03-21T15:54:28.699Z,16.51
2023-03-21T15:56:57.206Z,16.50
2023-03-21T15:59:25.753Z,16.47
2023-03-21T16:01:52.571Z,16.47
2023-03-21T16:04:19.148Z,16.46
2023-03-21T16:07:04.155Z,16.44
2023-03-21T16:09:40.778Z,16.40
2023-03-21T16:12:11.079Z,16.36
2023-03-21T16:14:37.996Z,16.32
2023-03-21T16:17:23.942Z,16.28
2023-03-21T16:19:51.005Z,16.24
2023-03-21T16:22:17.583Z,16.21
2023-03-21T16:24:44.215Z,16.17
2023-03-21T16:27:12.076Z,16.15
2023-03-21T16:29:38.644Z,16.10
2023-03-21T16:32:07.202Z,16.06
2023-03-21T16:34:33.826Z,16.01
2023-03-21T16:37:00.416Z,15.99
2023-03-21T16:39:27.083Z,15.95
2023-03-21T16:41:53.653Z,15.92
2023-03-21T16:44:20.697Z,15.89
2023-03-21T16:46:47.290Z,15.86
2023-03-21T16:49:23.875Z,15.83
2023-03-21T16:51:51.300Z,15.83
2023-03-21T16:54:17.885Z,15.80
2023-03-21T16:56:47.736Z,15.76
2023-03-21T16:59:15.421Z,15.73
2023-03-21T17:01:46.209Z,15.69
2023-03-21T17:04:13.601Z,15.66
2023-03-21T17:06:47.503Z,15.62
2023-03-21T17:09:15.590Z,15.60
2023-03-21T17:11:42.626Z,15.56
2023-03-21T17:14:11.020Z,15.53
2023-03-21T17:16:40.324Z,15.51
2023-03-21T17:19:26.436Z,15.50
2023-03-21T17:21:53.074Z,15.46
2023-03-21T17:24:19.575Z,15.43
2023-03-21T17:26:46.120Z,15.38
2023-03-21T17:29:13.946Z,15.34
2023-03-21T17:31:40.819Z,15.31
2023-03-21T17:34:08.549Z,15.29
2023-03-21T17:36:40.936Z,15.27
2023-03-21T17:39:09.396Z,15.23
2023-03-21T17:41:36.181Z,15.22
2023-03-21T17:44:03.223Z,15.20
2023-03-21T17:46:35.801Z,15.16
2023-03-21T17:49:02.599Z,15.15
2023-03-21T17:51:30.457Z,15.14
2023-03-21T17:53:57.483Z,15.11
2023-03-21T17:56:32.684Z,15.08
2023-03-21T17:59:03.858Z,15.04
2023-03-21T18:01:33.254Z,15.01
2023-03-21T18:04:02.896Z,15.00
2023-03-21T18:06:29.548Z,14.99
2023-03-21T18:08:56.228Z,14.97
2023-03-21T18:11:24.086Z,14.95
2023-03-21T18:13:51.653Z,14.96
2023-03-21T18:16:21.549Z,14.95
2023-03-21T18:18:49.042Z,14.94
2023-03-21T18:21:18.948Z,14.92
2023-03-21T18:23:46.318Z,14.89
2023-03-21T18:26:16.666Z,14.89
2023-03-21T18:28:43.655Z,14.87
2023-03-21T18:31:19.364Z,14.86
2023-03-21T18:33:48.093Z,14.86
2023-03-21T18:36:24.089Z,14.86
2023-03-21T18:38:51.757Z,14.86
2023-03-21T18:41:22.777Z,14.82
2023-03-21T18:44:13.577Z,14.76
2023-03-21T18:46:36.933Z,14.71
2023-03-21T18:49:30.362Z,14.64
2023-03-21T18:51:51.598Z,14.63
2023-03-21T18:54:18.208Z,14.60
2023-03-21T18:57:31.671Z,14.57
2023-03-21T18:59:39.122Z,14.55
2023-03-21T19:02:06.059Z,14.50
2023-03-21T19:04:33.723Z,14.44
2023-03-21T19:07:00.344Z,14.40
2023-03-21T19:09:31.199Z,14.38
2023-03-21T19:11:58.299Z,14.36
2023-03-21T19:14:24.866Z,14.36
2023-03-21T19:19:39.505Z,14.30
2023-03-21T19:22:06.359Z,14.29
2023-03-21T19:24:32.901Z,14.30
2023-03-21T19:26:59.573Z,14.28
2023-03-21T19:29:26.204Z,14.27
2023-03-21T19:31:53.021Z,14.28
2023-03-21T19:34:20.884Z,14.27
2023-03-21T19:36:51.670Z,14.29
2023-03-21T19:39:22.536Z,14.27
2023-03-21T19:41:50.753Z,14.29
2023-03-21T19:44:17.992Z,14.30
2023-03-21T19:46:44.597Z,14.33
2023-03-21T19:49:11.322Z,14.33
2023-03-21T19:51:38.021Z,14.34
2023-03-21T19:54:05.644Z,14.35
2023-03-21T19:56:32.492Z,14.32
2023-03-21T19:58:59.904Z,14.27
2023-03-21T20:01:26.726Z,14.24
2023-03-21T20:03:53.725Z,14.23
2023-03-21T20:06:22.616Z,14.20
2023-03-21T20:09:27.304Z,14.17
2023-03-21T20:11:36.504Z,14.14
2023-03-21T20:14:03.573Z,14.10
2023-03-21T20:16:34.996Z,14.04
2023-03-21T20:19:02.293Z,13.97
2023-03-21T20:21:41.106Z,13.90
2023-03-21T20:24:12.803Z,13.85
2023-03-21T20:26:39.548Z,13.83
2023-03-21T20:29:43.674Z,13.83
2023-03-21T20:31:53.269Z,13.79
2023-03-21T20:34:21.147Z,13.75
2023-03-21T20:36:48.156Z,13.73
2023-03-21T20:39:15.430Z,13.70
2023-03-21T20:41:42.140Z,13.67
2023-03-21T20:47:00.204Z,13.63
2023-03-21T20:49:28.215Z,13.60
2023-03-21T20:54:42.342Z,13.57
2023-03-21T20:57:20.114Z,13.56
2023-03-21T20:59:47.300Z,13.55
2023-03-21T21:02:14.432Z,13.53
2023-03-21T21:07:29.412Z,13.52
2023-03-21T21:09:57.025Z,13.53
2023-03-21T21:12:27.601Z,13.51
2023-03-21T21:14:55.555Z,13.51
2023-03-21T21:17:37.135Z,13.50
2023-03-21T21:20:16.956Z,13.42
2023-03-21T21:22:46.086Z,13.41
2023-03-21T21:25:24.042Z,13.43
2023-03-21T21:27:50.795Z,13.38
2023-03-21T21:30:18.645Z,13.37
2023-03-21T21:32:45.287Z,13.36
2023-03-21T21:35:12.248Z,13.34
2023-03-21T21:37:41.903Z,13.31
2023-03-21T21:40:20.311Z,13.31
2023-03-21T21:42:47.043Z,13.27
2023-03-21T21:45:13.972Z,13.28
2023-03-21T21:47:40.837Z,13.27
2023-03-21T21:50:08.242Z,13.26
2023-03-21T21:52:35.459Z,13.20
2023-03-21T21:55:04.075Z,13.17
2023-03-21T21:57:34.236Z,13.12
2023-03-21T22:00:06.714Z,13.08
2023-03-21T22:02:33.684Z,13.03
2023-03-21T22:05:00.608Z,13.01
2023-03-21T22:07:27.764Z,12.99
2023-03-21T22:09:54.554Z,12.94
2023-03-21T22:12:21.436Z,12.92
2023-03-21T22:14:47.994Z,12.88
2023-03-21T22:17:14.554Z,12.87
2023-03-21T22:19:41.203Z,12.86
2023-03-21T22:22:10.149Z,12.85
2023-03-21T22:24:37.570Z,12.85
2023-03-21T22:27:04.509Z,12.85
2023-03-21T22:29:31.258Z,12.88
2023-03-21T22:31:57.882Z,12.91
2023-03-21T22:34:26.475Z,12.90
2023-03-21T22:36:53.468Z,12.87
2023-03-21T22:39:21.083Z,12.84
2023-03-21T22:41:47.670Z,12.83
2023-03-21T22:44:14.245Z,12.83
2023-03-21T22:46:40.824Z,12.79
2023-03-21T22:49:07.418Z,12.77
2023-03-21T22:51:33.982Z,12.70
2023-03-21T22:54:00.554Z,12.64
2023-03-21T22:56:27.360Z,12.55
2023-03-21T22:58:54.292Z,12.50
2023-03-21T23:01:20.980Z,12.49
2023-03-21T23:03:47.634Z,12.43
2023-03-21T23:06:14.448Z,12.41
2023-03-21T23:08:40.970Z,12.41
2023-03-21T23:11:08.405Z,12.41
2023-03-21T23:13:36.889Z,12.41
2023-03-21T23:16:05.354Z,12.42
2023-03-21T23:18:32.611Z,12.43
2023-03-21T23:20:59.623Z,12.42
2023-03-21T23:23:26.655Z,12.38
2023-03-21T23:25:53.467Z,12.36
2023-03-21T23:28:20.204Z,12.35
2023-03-21T23:30:46.715Z,12.32
2023-03-21T23:33:13.258Z,12.27
2023-03-21T23:35:39.970Z,12.26
2023-03-21T23:38:06.927Z,12.28
2023-03-21T23:40:33.500Z,12.25
2023-03-21T23:43:00.163Z,12.23
2023-03-21T23:45:26.870Z,12.23
2023-03-21T23:47:53.500Z,12.22
2023-03-21T23:50:20.239Z,12.21
2023-03-21T23:52:47.050Z,12.21
2023-03-21T23:55:13.712Z,12.13
2023-03-21T23:57:41.818Z,12.06
